createdAt,value
2018-05-02T00:00:33.609Z,4.47
2018-05-02T00:03:01.271Z,4.30
2018-05-02T00:05:28.952Z,4.87
2018-05-02T00:07:57.374Z,6.23
2018-05-02T00:10:25.074Z,4.90
2018-05-02T00:12:52.741Z,5.73
2018-05-02T00:15:20.450Z,5.50
2018-05-02T00:17:48.091Z,5.67
2018-05-02T00:20:16.550Z,5.23
2018-05-02T00:22:44.208Z,5.13
2018-05-02T00:25:12.681Z,5.00
2018-05-02T00:27:40.361Z,3.80
2018-05-02T00:30:08.794Z,4.13
2018-05-02T00:32:36.455Z,4.90
2018-05-02T00:35:04.198Z,4.77
2018-05-02T00:37:31.863Z,5.10
2018-05-02T00:39:59.547Z,3.77
2018-05-02T00:42:27.222Z,5.63
2018-05-02T00:44:54.942Z,4.83
2018-05-02T00:47:22.614Z,4.63
2018-05-02T00:49:50.291Z,4.83
2018-05-02T00:52:17.971Z,4.00
2018-05-02T00:54:45.615Z,5.23
2018-05-02T00:57:13.276Z,4.60
2018-05-02T00:59:40.940Z,4.20
2018-05-02T01:02:09.654Z,4.90
2018-05-02T01:04:37.317Z,4.70
2018-05-02T01:07:05.054Z,4.63
2018-05-02T01:09:32.709Z,5.33
2018-05-02T01:12:00.352Z,5.70
2018-05-02T01:14:28.036Z,5.53
2018-05-02T01:16:55.678Z,5.30
2018-05-02T01:19:23.363Z,4.80
2018-05-02T01:21:51.018Z,5.07
2018-05-02T01:24:18.683Z,5.80
2018-05-02T01:26:46.335Z,6.40
2018-05-02T01:29:14.035Z,5.20
2018-05-02T01:31:41.686Z,5.37
2018-05-02T01:34:10.200Z,5.43
2018-05-02T01:36:38.264Z,6.10
2018-05-02T01:39:06.725Z,5.03
2018-05-02T01:41:34.374Z,4.50
2018-05-02T01:44:02.049Z,4.60
2018-05-02T01:46:29.702Z,5.60
2018-05-02T01:49:10.062Z,5.33
2018-05-02T01:51:38.323Z,5.70
2018-05-02T01:54:06.014Z,5.37
2018-05-02T01:56:34.444Z,5.70
2018-05-02T01:59:02.139Z,5.67
2018-05-02T02:01:29.811Z,5.90
2018-05-02T02:03:57.480Z,6.07
2018-05-02T02:06:25.920Z,7.10
2018-05-02T02:08:53.556Z,5.47
2018-05-02T02:11:21.227Z,5.00
2018-05-02T02:13:48.883Z,6.07
2018-05-02T02:16:16.566Z,5.37
2018-05-02T02:18:44.209Z,5.73
2018-05-02T02:21:11.872Z,6.40
2018-05-02T02:23:40.202Z,5.60
2018-05-02T02:26:09.609Z,5.00
2018-05-02T02:28:38.638Z,6.07
2018-05-02T02:31:06.321Z,5.37
2018-05-02T02:33:33.990Z,5.33
2018-05-02T02:36:01.633Z,6.23
2018-05-02T02:38:29.310Z,5.57
2018-05-02T02:40:56.971Z,6.20
2018-05-02T02:43:24.669Z,6.23
2018-05-02T02:45:53.091Z,5.60
2018-05-02T02:48:20.767Z,5.00
2018-05-02T02:50:48.449Z,6.20
2018-05-02T02:53:16.119Z,4.70
2018-05-02T02:55:43.769Z,4.80
2018-05-02T02:58:11.446Z,4.80
2018-05-02T03:00:40.052Z,5.57
2018-05-02T03:03:09.867Z,5.60
2018-05-02T03:05:37.524Z,4.70
2018-05-02T03:08:06.083Z,5.07
2018-05-02T03:10:33.726Z,5.47
2018-05-02T03:13:01.408Z,4.80
2018-05-02T03:15:29.833Z,5.37
2018-05-02T03:17:57.549Z,6.37
2018-05-02T03:20:25.202Z,6.63
2018-05-02T03:22:52.917Z,6.10
2018-05-02T03:25:20.574Z,6.30
2018-05-02T03:27:48.231Z,5.83
2018-05-02T03:30:15.910Z,6.17
2018-05-02T03:32:43.587Z,6.80
2018-05-02T03:35:11.270Z,6.03
2018-05-02T03:37:38.919Z,6.37
2018-05-02T03:40:06.594Z,5.57
2018-05-02T03:42:34.242Z,5.80
2018-05-02T03:45:01.922Z,5.33
2018-05-02T03:47:29.564Z,6.80
2018-05-02T03:49:57.247Z,6.00
2018-05-02T03:52:24.907Z,6.67
2018-05-02T03:54:52.585Z,6.43
2018-05-02T03:57:20.999Z,6.60
2018-05-02T04:00:00.541Z,6.37
2018-05-02T04:02:40.091Z,6.33
2018-05-02T04:05:19.785Z,6.67
2018-05-02T04:07:48.208Z,6.50
2018-05-02T04:10:15.850Z,6.57
2018-05-02T04:12:43.521Z,6.40
2018-05-02T04:15:11.171Z,6.77
2018-05-02T04:17:38.832Z,6.43
2018-05-02T04:20:06.477Z,6.03
2018-05-02T04:22:34.918Z,5.57
2018-05-02T04:25:02.579Z,7.20
2018-05-02T04:27:30.263Z,7.23
2018-05-02T04:29:58.690Z,7.33
2018-05-02T04:32:26.388Z,8.80
2018-05-02T04:34:54.033Z,6.20
2018-05-02T04:37:21.710Z,7.50
2018-05-02T04:39:49.362Z,7.90
2018-05-02T04:42:17.032Z,6.97
2018-05-02T04:44:44.669Z,6.60
2018-05-02T04:47:12.359Z,6.03
2018-05-02T04:49:40.018Z,6.20
2018-05-02T04:52:08.261Z,6.97
2018-05-02T04:54:35.934Z,7.23
2018-05-02T04:57:03.593Z,7.13
2018-05-02T04:59:31.290Z,7.20
2018-05-02T05:01:59.730Z,7.00
2018-05-02T05:04:27.420Z,8.07
2018-05-02T05:06:55.078Z,8.50
2018-05-02T05:09:22.735Z,7.40
2018-05-02T05:11:50.380Z,7.77
2018-05-02T05:14:18.261Z,7.97
2018-05-02T05:16:45.901Z,7.83
2018-05-02T05:19:13.658Z,7.53
2018-05-02T05:21:41.324Z,8.30
2018-05-02T05:24:09.015Z,9.10
2018-05-02T05:26:36.662Z,8.70
2018-05-02T05:29:04.404Z,8.80
2018-05-02T05:31:32.051Z,8.03
2018-05-02T05:33:59.731Z,8.70
2018-05-02T05:36:27.391Z,8.30
2018-05-02T05:38:55.072Z,8.77
2018-05-02T05:41:22.724Z,8.80
2018-05-02T05:43:50.402Z,8.57
2018-05-02T05:46:18.088Z,8.80
2018-05-02T05:48:46.594Z,7.23
2018-05-02T05:51:31.596Z,8.00
2018-05-02T05:53:59.985Z,7.90
2018-05-02T05:56:27.626Z,8.40
2018-05-02T05:58:55.282Z,8.20
2018-05-02T06:01:22.956Z,7.37
2018-05-02T06:03:50.617Z,7.90
2018-05-02T06:06:18.393Z,8.27
2018-05-02T06:08:46.397Z,8.23
2018-05-02T06:11:14.990Z,7.07
2018-05-02T06:13:42.658Z,7.40
2018-05-02T06:16:10.343Z,7.43
2018-05-02T06:18:38.614Z,7.70
2018-05-02T06:21:06.302Z,7.43
2018-05-02T06:23:33.968Z,7.67
2018-05-02T06:26:01.653Z,7.70
2018-05-02T06:28:30.082Z,7.77
2018-05-02T06:30:57.762Z,8.17
2018-05-02T06:33:25.422Z,7.40
2018-05-02T06:35:53.066Z,7.20
2018-05-02T06:38:20.757Z,8.67
2018-05-02T06:40:48.442Z,8.30
2018-05-02T06:43:16.904Z,7.90
2018-05-02T06:45:44.545Z,7.60
2018-05-02T06:48:12.233Z,7.47
2018-05-02T06:50:40.026Z,8.83
2018-05-02T06:53:08.453Z,7.40
2018-05-02T06:55:36.096Z,8.30
2018-05-02T06:58:03.775Z,8.67
2018-05-02T07:00:31.446Z,7.70
2018-05-02T07:02:59.141Z,8.53
2018-05-02T07:05:27.581Z,8.07
2018-05-02T07:07:55.271Z,8.13
2018-05-02T07:10:22.956Z,7.37
2018-05-02T07:12:50.646Z,7.60
2018-05-02T07:15:18.322Z,8.10
2018-05-02T07:17:45.991Z,6.67
2018-05-02T07:20:13.674Z,7.07
2018-05-02T07:22:41.329Z,7.50
2018-05-02T07:25:09.024Z,7.47
2018-05-02T07:27:36.689Z,7.03
2018-05-02T07:30:04.370Z,7.30
2018-05-02T07:32:32.163Z,7.13
2018-05-02T07:34:59.746Z,7.20
2018-05-02T07:37:27.409Z,6.57
2018-05-02T07:39:55.106Z,7.73
2018-05-02T07:42:22.755Z,6.67
2018-05-02T07:44:51.180Z,6.93
2018-05-02T07:47:18.829Z,6.50
2018-05-02T07:49:46.501Z,7.10
2018-05-02T07:52:14.159Z,6.50
2018-05-02T07:54:41.842Z,7.17
2018-05-02T07:57:10.359Z,6.93
2018-05-02T07:59:39.048Z,6.10
2018-05-02T08:02:06.711Z,6.20
2018-05-02T08:04:34.414Z,6.97
2018-05-02T08:07:02.065Z,6.20
2018-05-02T08:09:29.708Z,6.10
2018-05-02T08:11:57.380Z,5.67
2018-05-02T08:14:25.034Z,5.50
2018-05-02T08:16:52.715Z,5.60
2018-05-02T08:19:20.375Z,5.40
2018-05-02T08:21:48.371Z,5.20
2018-05-02T08:24:16.048Z,5.90
2018-05-02T08:26:44.533Z,5.17
2018-05-02T08:29:12.966Z,5.43
2018-05-02T08:31:40.653Z,5.13
2018-05-02T08:34:08.311Z,5.00
2018-05-02T08:36:35.993Z,4.47
2018-05-02T08:39:04.428Z,4.30
2018-05-02T08:41:32.119Z,4.17
2018-05-02T08:43:59.764Z,5.00
2018-05-02T08:46:27.458Z,4.30
2018-05-02T08:48:55.889Z,4.77
2018-05-02T08:51:23.663Z,4.43
2018-05-02T08:53:51.386Z,4.93
2018-05-02T08:56:19.147Z,3.87
2018-05-02T08:58:46.852Z,4.10
2018-05-02T09:01:14.506Z,4.20
2018-05-02T09:03:42.235Z,4.30
2018-05-02T09:06:10.640Z,4.40
2018-05-02T09:08:38.303Z,4.03
2018-05-02T09:11:05.949Z,4.03
2018-05-02T09:13:33.635Z,4.37
2018-05-02T09:16:01.291Z,4.20
2018-05-02T09:18:28.970Z,4.53
2018-05-02T09:20:56.615Z,4.27
2018-05-02T09:23:24.293Z,4.00
2018-05-02T09:25:51.932Z,3.87
2018-05-02T09:28:19.623Z,4.13
2018-05-02T09:30:47.286Z,3.83
2018-05-02T09:33:14.979Z,4.10
2018-05-02T09:35:43.457Z,5.50
2018-05-02T09:38:11.082Z,4.50
2018-05-02T09:40:39.670Z,4.27
2018-05-02T09:43:07.323Z,4.23
2018-05-02T09:45:35.015Z,5.30
2018-05-02T09:48:03.445Z,4.03
2018-05-02T09:50:31.137Z,3.63
2018-05-02T09:52:58.811Z,4.33
2018-05-02T09:55:26.490Z,5.20
2018-05-02T09:57:54.913Z,4.80
2018-05-02T10:00:22.595Z,4.13
2018-05-02T10:02:50.248Z,4.20
2018-05-02T10:05:17.943Z,4.13
2018-05-02T10:07:46.374Z,4.57
2018-05-02T10:10:14.077Z,3.97
2018-05-02T10:12:41.739Z,3.90
2018-05-02T10:15:10.863Z,4.07
2018-05-02T10:17:39.999Z,4.17
2018-05-02T10:20:08.313Z,4.00
2018-05-02T10:22:36.738Z,4.17
2018-05-02T10:25:04.400Z,4.80
2018-05-02T10:27:32.079Z,3.57
2018-05-02T10:29:59.750Z,4.27
2018-05-02T10:32:27.434Z,3.57
2018-05-02T10:34:55.865Z,4.10
2018-05-02T10:37:23.550Z,4.17
2018-05-02T10:39:51.231Z,4.10
2018-05-02T10:42:18.904Z,3.33
2018-05-02T10:44:47.335Z,4.03
2018-05-02T10:47:15.011Z,3.90
2018-05-02T10:49:42.690Z,3.93
2018-05-02T10:52:10.364Z,3.50
2018-05-02T10:54:39.718Z,3.83
2018-05-02T10:57:07.421Z,4.00
2018-05-02T10:59:35.090Z,3.50
2018-05-02T11:02:03.549Z,3.97
2018-05-02T11:04:31.211Z,3.50
2018-05-02T11:06:58.919Z,3.60
2018-05-02T11:09:26.580Z,3.40
2018-05-02T11:11:54.220Z,3.20
2018-05-02T11:14:22.673Z,3.13
2018-05-02T11:16:50.401Z,2.90
2018-05-02T11:19:18.027Z,2.93
2018-05-02T11:21:46.467Z,2.97
2018-05-02T11:24:14.237Z,2.97
2018-05-02T11:26:41.890Z,3.07
2018-05-02T11:29:10.839Z,3.40
2018-05-02T11:31:39.778Z,3.30
2018-05-02T11:34:07.468Z,3.10
2018-05-02T11:36:36.011Z,5.40
2018-05-02T11:39:03.706Z,3.40
2018-05-02T11:41:32.147Z,4.03
2018-05-02T11:43:59.854Z,3.07
2018-05-02T11:46:28.286Z,2.90
2018-05-02T11:48:55.952Z,3.40
2018-05-02T11:51:23.613Z,2.57
2018-05-02T11:53:51.314Z,3.10
2018-05-02T11:56:19.856Z,3.20
2018-05-02T11:58:47.496Z,2.90
2018-05-02T12:01:15.174Z,3.60
2018-05-02T12:03:42.826Z,3.00
2018-05-02T12:06:10.514Z,2.93
2018-05-02T12:08:39.210Z,3.30
2018-05-02T12:11:07.011Z,3.40
2018-05-02T12:13:34.651Z,2.90
2018-05-02T12:16:02.500Z,4.00
2018-05-02T12:18:30.113Z,3.27
2018-05-02T12:20:57.794Z,2.87
2018-05-02T12:23:25.453Z,3.20
2018-05-02T12:25:53.123Z,3.27
2018-05-02T12:28:20.772Z,3.20
2018-05-02T12:30:48.701Z,3.27
2018-05-02T12:33:16.390Z,3.00
2018-05-02T12:35:44.053Z,2.70
2018-05-02T12:38:11.710Z,3.40
2018-05-02T12:40:40.754Z,3.20
2018-05-02T12:43:09.787Z,3.77
2018-05-02T12:45:37.468Z,3.90
2018-05-02T12:48:06.723Z,4.30
2018-05-02T12:50:35.157Z,4.30
2018-05-02T12:53:02.865Z,4.83
2018-05-02T12:55:31.294Z,4.97
2018-05-02T12:57:59.014Z,4.33
2018-05-02T13:00:27.442Z,4.40
2018-05-02T13:02:55.123Z,4.10
2018-05-02T13:05:22.763Z,3.73
2018-05-02T13:07:50.429Z,4.10
2018-05-02T13:10:18.082Z,3.70
2018-05-02T13:12:45.760Z,4.17
2018-05-02T13:15:13.422Z,3.53
2018-05-02T13:17:41.118Z,3.47
2018-05-02T13:20:10.606Z,2.90
2018-05-02T13:22:38.316Z,3.33
2018-05-02T13:25:05.974Z,3.60
2018-05-02T13:27:33.679Z,2.60
2018-05-02T13:30:01.338Z,3.13
2018-05-02T13:32:29.001Z,2.27
2018-05-02T13:34:56.686Z,2.60
2018-05-02T13:37:24.349Z,2.10
2018-05-02T13:39:52.797Z,2.70
2018-05-02T13:42:20.458Z,3.20
2018-05-02T13:44:48.182Z,3.17
2018-05-02T13:47:15.839Z,3.47
2018-05-02T13:49:43.523Z,3.00
2018-05-02T13:52:11.178Z,2.67
2018-05-02T13:54:38.861Z,2.70
2018-05-02T13:57:06.557Z,2.80
2018-05-02T13:59:34.233Z,2.37
2018-05-02T14:02:02.648Z,2.50
2018-05-02T14:04:30.342Z,2.50
2018-05-02T14:06:58.028Z,2.77
2018-05-02T14:09:26.477Z,3.10
2018-05-02T14:11:54.139Z,2.37
2018-05-02T14:14:21.822Z,2.73
2018-05-02T14:16:49.492Z,2.50
2018-05-02T14:19:17.964Z,2.50
2018-05-02T14:21:45.619Z,2.87
2018-05-02T14:24:13.277Z,2.40
2018-05-02T14:26:40.979Z,2.93
2018-05-02T14:29:09.483Z,2.80
2018-05-02T14:31:37.169Z,2.70
2018-05-02T14:34:04.812Z,3.00
2018-05-02T14:36:32.490Z,2.90
2018-05-02T14:39:00.150Z,2.70
2018-05-02T14:41:27.836Z,2.47
2018-05-02T14:43:55.500Z,2.67
2018-05-02T14:46:23.194Z,2.80
2018-05-02T14:48:50.840Z,3.10
2018-05-02T14:51:19.290Z,2.53
2018-05-02T14:53:46.941Z,2.67
2018-05-02T14:56:14.627Z,2.90
2018-05-02T14:58:43.051Z,3.00
2018-05-02T15:01:10.764Z,2.87
2018-05-02T15:03:39.164Z,3.00
2018-05-02T15:06:08.307Z,2.40
2018-05-02T15:08:35.973Z,2.50
2018-05-02T15:11:03.662Z,2.97
2018-05-02T15:13:31.314Z,3.60
2018-05-02T15:15:58.974Z,3.50
2018-05-02T15:18:26.662Z,3.40
2018-05-02T15:20:55.101Z,2.87
2018-05-02T15:23:22.789Z,3.17
2018-05-02T15:25:50.435Z,3.23
2018-05-02T15:28:18.108Z,2.73
2018-05-02T15:30:45.769Z,3.40
2018-05-02T15:33:13.462Z,3.37
2018-05-02T15:35:41.112Z,3.70
2018-05-02T15:38:10.673Z,3.40
2018-05-02T15:40:39.121Z,2.93
2018-05-02T15:43:06.798Z,3.20
2018-05-02T15:45:34.470Z,3.47
2018-05-02T15:48:02.167Z,3.30
2018-05-02T15:50:29.825Z,7.60
2018-05-02T15:52:57.533Z,3.80
2018-05-02T15:55:25.198Z,3.33
2018-05-02T15:57:52.849Z,3.50
2018-05-02T16:00:20.534Z,3.70
2018-05-02T16:02:48.199Z,3.77
2018-05-02T16:05:15.877Z,3.60
2018-05-02T16:07:43.528Z,4.03
2018-05-02T16:10:11.251Z,3.43
2018-05-02T16:12:38.919Z,3.53
2018-05-02T16:15:06.590Z,7.33
2018-05-02T16:17:34.247Z,6.30
2018-05-02T16:20:01.934Z,18.03
2018-05-02T16:22:29.610Z,13.07
2018-05-02T16:24:57.309Z,17.83
2018-05-02T16:27:25.050Z,10.03
2018-05-02T16:29:52.725Z,7.43
2018-05-02T16:32:21.161Z,4.10
2018-05-02T16:34:48.846Z,4.00
2018-05-02T16:37:16.502Z,4.23
2018-05-02T16:39:44.191Z,4.23
2018-05-02T16:42:12.609Z,3.20
2018-05-02T16:44:40.256Z,3.97
2018-05-02T16:47:08.606Z,4.30
2018-05-02T16:49:37.020Z,3.60
2018-05-02T16:52:04.709Z,4.27
2018-05-02T16:54:32.372Z,4.37
2018-05-02T16:57:00.046Z,4.33
2018-05-02T16:59:27.728Z,4.27
2018-05-02T17:01:56.169Z,3.60
2018-05-02T17:04:23.902Z,3.57
2018-05-02T17:06:51.550Z,4.90
2018-05-02T17:09:19.210Z,3.80
2018-05-02T17:11:46.895Z,4.30
2018-05-02T17:14:14.574Z,14.00
2018-05-02T17:16:42.315Z,6.33
2018-05-02T17:19:10.713Z,5.77
2018-05-02T17:21:39.163Z,4.50
2018-05-02T17:24:06.811Z,4.40
2018-05-02T17:26:35.285Z,4.23
2018-05-02T17:29:03.718Z,5.03
2018-05-02T17:31:31.359Z,5.70
2018-05-02T17:33:59.343Z,4.97
2018-05-02T17:36:26.991Z,4.33
2018-05-02T17:38:54.661Z,3.90
2018-05-02T17:41:22.322Z,4.23
2018-05-02T17:43:50.020Z,10.27
2018-05-02T17:46:17.686Z,7.87
2018-05-02T17:48:45.397Z,6.00
2018-05-02T17:51:13.074Z,5.27
2018-05-02T17:53:40.779Z,5.07
2018-05-02T17:56:10.324Z,4.30
2018-05-02T17:58:38.628Z,4.90
2018-05-02T18:01:06.284Z,3.90
2018-05-02T18:03:33.979Z,4.50
2018-05-02T18:06:02.403Z,4.80
2018-05-02T18:08:30.075Z,4.80
2018-05-02T18:10:57.747Z,4.17
2018-05-02T18:13:25.461Z,3.80
2018-05-02T18:15:53.126Z,6.40
2018-05-02T18:18:20.815Z,4.97
2018-05-02T18:20:48.489Z,4.93
2018-05-02T18:23:16.176Z,4.97
2018-05-02T18:25:43.862Z,4.00
2018-05-02T18:28:12.291Z,7.43
2018-05-02T18:30:40.862Z,5.97
2018-05-02T18:33:09.569Z,4.97
2018-05-02T18:35:37.257Z,5.47
2018-05-02T18:38:04.917Z,4.80
2018-05-02T18:40:32.587Z,4.70
2018-05-02T18:43:01.021Z,5.20
2018-05-02T18:45:28.717Z,4.97
2018-05-02T18:47:56.379Z,5.23
2018-05-02T18:50:24.058Z,5.97
2018-05-02T18:52:52.467Z,5.27
2018-05-02T18:55:20.151Z,5.43
2018-05-02T18:57:47.824Z,5.73
2018-05-02T19:00:15.519Z,5.93
2018-05-02T19:02:43.935Z,5.70
2018-05-02T19:05:11.713Z,5.90
2018-05-02T19:07:40.620Z,6.70
2018-05-02T19:10:09.423Z,5.57
2018-05-02T19:12:37.120Z,6.70
2018-05-02T19:15:04.786Z,6.70
2018-05-02T19:17:32.487Z,6.97
2018-05-02T19:20:05.888Z,6.47
2018-05-02T19:22:33.580Z,5.90
2018-05-02T19:28:09.347Z,5.70
2018-05-02T19:30:38.329Z,5.97
2018-05-02T19:33:11.595Z,5.70
2018-05-02T19:35:40.569Z,5.97
2018-05-02T19:38:08.286Z,6.17
2018-05-02T19:40:42.314Z,5.97
2018-05-02T19:43:16.435Z,6.23
2018-05-02T19:45:44.074Z,6.47
2018-05-02T19:48:12.524Z,6.10
2018-05-02T19:50:40.183Z,5.90
2018-05-02T19:53:08.263Z,6.30
2018-05-02T19:55:36.667Z,7.43
2018-05-02T19:58:05.150Z,5.90
2018-05-02T20:00:39.206Z,6.37
2018-05-02T20:03:06.902Z,5.90
2018-05-02T20:05:34.568Z,7.13
2018-05-02T20:08:02.252Z,7.07
2018-05-02T20:10:36.402Z,7.20
2018-05-02T20:13:09.813Z,7.03
2018-05-02T20:15:37.473Z,7.20
2018-05-02T20:18:06.693Z,6.40
2018-05-02T20:20:34.353Z,7.10
2018-05-02T20:23:02.093Z,5.80
2018-05-02T20:25:29.765Z,6.80
2018-05-02T20:27:57.418Z,7.47
2018-05-02T20:30:25.105Z,7.77
2018-05-02T20:32:52.757Z,6.50
2018-05-02T20:35:20.445Z,5.73
2018-05-02T20:37:48.874Z,6.67
2018-05-02T20:40:16.554Z,6.43
2018-05-02T20:42:44.429Z,7.30
2018-05-02T20:45:12.142Z,6.80
2018-05-02T20:47:40.038Z,6.50
2018-05-02T20:50:08.274Z,7.43
2018-05-02T20:52:35.954Z,6.40
2018-05-02T20:55:03.745Z,7.33
2018-05-02T20:57:31.365Z,7.77
2018-05-02T20:59:59.590Z,8.17
2018-05-02T21:02:27.275Z,8.83
2018-05-02T21:04:55.694Z,7.90
2018-05-02T21:07:23.375Z,8.13
2018-05-02T21:09:51.015Z,9.07
2018-05-02T21:12:18.683Z,10.57
2018-05-02T21:14:46.345Z,12.90
2018-05-02T21:17:14.029Z,10.17
2018-05-02T21:19:41.699Z,9.43
2018-05-02T21:22:10.488Z,8.43
2018-05-02T21:24:39.273Z,9.13
2018-05-02T21:27:06.968Z,8.00
2018-05-02T21:29:35.375Z,8.17
2018-05-02T21:32:03.027Z,8.40
2018-05-02T21:34:30.705Z,6.50
2018-05-02T21:36:58.385Z,6.40
2018-05-02T21:39:26.071Z,6.03
2018-05-02T21:41:53.722Z,6.77
2018-05-02T21:44:21.785Z,6.30
2018-05-02T21:46:49.443Z,6.70
2018-05-02T21:49:17.160Z,5.90
2018-05-02T21:51:44.810Z,6.60
2018-05-02T21:54:13.297Z,6.87
2018-05-02T21:56:40.949Z,6.43
2018-05-02T21:59:10.489Z,7.00
2018-05-02T22:01:39.206Z,7.03
2018-05-02T22:04:06.913Z,6.10
2018-05-02T22:06:34.575Z,7.03
2018-05-02T22:09:02.258Z,7.00
2018-05-02T22:11:29.907Z,7.83
2018-05-02T22:13:57.603Z,7.07
2018-05-02T22:16:25.241Z,6.50
2018-05-02T22:18:52.902Z,7.10
2018-05-02T22:21:20.594Z,5.67
2018-05-02T22:23:48.258Z,7.03
2018-05-02T22:26:15.942Z,6.30
2018-05-02T22:28:43.598Z,6.80
2018-05-02T22:31:11.291Z,7.10
2018-05-02T22:33:38.942Z,7.40
2018-05-02T22:36:06.626Z,7.20
2018-05-02T22:38:34.265Z,7.00
2018-05-02T22:41:02.697Z,6.80
2018-05-02T22:43:30.350Z,7.43
2018-05-02T22:45:58.349Z,7.67
2018-05-02T22:48:26.005Z,7.37
2018-05-02T22:50:53.713Z,8.23
2018-05-02T22:53:21.390Z,7.63
2018-05-02T22:55:49.091Z,7.73
2018-05-02T22:58:16.749Z,7.10
2018-05-02T23:00:44.428Z,7.90
2018-05-02T23:03:12.871Z,6.67
2018-05-02T23:05:40.535Z,6.97
2018-05-02T23:08:09.331Z,7.70
2018-05-02T23:10:36.967Z,7.13
2018-05-02T23:13:05.398Z,7.70
2018-05-02T23:15:33.046Z,7.60
2018-05-02T23:18:00.721Z,7.97
2018-05-02T23:20:29.424Z,6.87
2018-05-02T23:22:57.114Z,7.83
2018-05-02T23:25:24.781Z,7.60
2018-05-02T23:27:52.453Z,7.90
2018-05-02T23:30:20.187Z,7.33
2018-05-02T23:32:47.813Z,6.93
2018-05-02T23:35:16.261Z,7.23
2018-05-02T23:37:43.952Z,7.53
2018-05-02T23:40:12.366Z,7.00
2018-05-02T23:42:40.029Z,7.47
2018-05-02T23:45:08.335Z,7.10
2018-05-02T23:47:36.021Z,6.80
2018-05-02T23:50:03.682Z,7.50
2018-05-02T23:52:31.330Z,6.93
2018-05-02T23:54:59.012Z,8.00
2018-05-02T23:57:26.659Z,7.20
2018-05-02T23:59:54.339Z,7.43
